LFBE/EGC METAR and TAF weather

Enter ICAO airport designator
Station Type Date Time Source
LFBE METAR 2021/10/22 18:30 UTC NOAA

LFBE 221830Z AUTO 34003KT CAVOK 14/10 Q1024 NOSIG


Station Type Date Time Source
LFBE Decoded METAR 2021/10/22 18:30 UTC NOAA

Bergerac, France (LFBE) 44-49N 000-31E 52M
Oct 22, 2021 - 02:30 PM EDT / 2021.10.22 1830 UTC
Wind: from the NNW (340 degrees) at 3 MPH (3 KT):0
Visibility: greater than 7 mile(s):0
Temperature: 57 F (14 C)
Dew Point: 50 F (10 C)
Relative Humidity: 76%
Pressure (altimeter): 30.24 in. Hg (1024 hPa)
ob: LFBE 221830Z AUTO 34003KT CAVOK 14/10 Q1024 NOSIG
cycle: 18

Station Type Date Time Source
LFBE TAF 2021/10/22 12:21 UTC NOAA

TAF LFBE 221100Z 2212/2312 33005KT 9999 BKN020
BECMG 2216/2218 CAVOK
BECMG 2222/2224 VRB02KT

Example: see airport list